Hovedside
METAR-TAF:

METAR-TAF

Lufthavner :

Farnborough, England

breddegrad: 51-17N, lengdegrad: 000-46W, høyde over havet: 65 m

Gjeldene værobservasjon

Denne rapporten ble laget for 17 minutter siden, klokken 13:20 UTC
Vind 7 kt fra Sør-sørøst, skiftende mellom Øst-sørøst og Sørvest
Temperatur 26°C
Luftfuktighet 54%
Trykk 1020 hPa
Sikt 10 km eller mer

METAR: EGLF 181320Z AUTO 16007KT 120V220 9999 FEW040/// 26/16 Q1020

Tid: 14:37 (13:37 UTC)

Varsel

Denne rapporten ble laget for 2 timer og 40 minutter siden, klokken 10:57 UTC
Varsel gyldig fra 18. klokken 12 UTC til 18. klokken 21 UTC
Vind 6 kt fra Sørøst
Sikt 10 km eller mer
Få skyer i en høyde av 4800 ft

TAF: EGLF 181057Z 1812/1821 14006KT 9999 FEW048

Værobservasjoner og værvarsel for over 4000 flyplasser (METAR- og TAF-rapporter).

Tilgjengelige stasjoner er representert av de røde og gule prikkene på kartet.

Hold musepekeren over prikken for å se navnet på stasjonen.

Klikk så for å se værobservasjoner og -varsler.

For å forandre kartet kan du klikke på den grønne knappen med svart kryss for å zoome inn, på den grønne knappen med strek for å zoome ut, eller på de grønne pilene for å se tilstøtende kart.


METAR-TAF: